Time;durP1;ratioP1;P1;durP2;ratioP2;P2;SDS_P1;SDS_P2;PMS_P1;PMS_P2;Temp;Humidity;BMP_temperature;BMP_pressure;BME280_temperature;BME280_humidity;BME280_pressure;Samples;Min_cycle;Max_cycle;Signal;HPM_P1;HPM_P2
2022/01/24 00:01:56;;;;;;;13.75;7.93;;;5.40;99.90;;;;;;5008786;28;20530;-72
2022/01/24 00:04:23;;;;;;;12.95;7.63;;;5.40;99.90;;;;;;5025602;28;20453;-73
2022/01/24 00:06:49;;;;;;;14.68;7.93;;;5.40;99.90;;;;;;5009690;28;20122;-73
2022/01/24 00:09:15;;;;;;;12.00;7.35;;;5.40;99.90;;;;;;5039399;28;20120;-73
2022/01/24 00:11:46;;;;;;;11.15;7.53;;;5.40;99.90;;;;;;5021804;28;20240;-73
2022/01/24 00:17:02;;;;;;;13.45;7.65;;;5.40;99.90;;;;;;5042422;28;20394;-73
2022/01/24 00:27:41;;;;;;;10.73;7.25;;;5.30;99.90;;;;;;5026865;28;20042;-73
2022/01/24 00:30:07;;;;;;;11.10;7.18;;;5.40;99.90;;;;;;5024538;28;20107;-73
2022/01/24 00:32:32;;;;;;;11.82;6.57;;;5.40;99.90;;;;;;5022275;28;20056;-73
2022/01/24 00:34:58;;;;;;;9.57;5.85;;;5.40;99.90;;;;;;5024938;28;20510;-73
2022/01/24 00:37:25;;;;;;;9.43;5.90;;;5.40;99.90;;;;;;5009851;28;20519;-73
2022/01/24 00:39:51;;;;;;;9.30;6.05;;;5.30;99.90;;;;;;5026128;28;20128;-73
2022/01/24 00:42:30;;;;;;;10.88;6.45;;;5.30;99.90;;;;;;5041978;28;20132;-73
2022/01/24 00:45:36;;;;;;;11.48;6.40;;;5.30;99.90;;;;;;5009550;28;20061;-73
2022/01/24 00:53:16;;;;;;;10.32;6.25;;;5.30;99.90;;;;;;5025255;28;20132;-73
2022/01/24 00:55:43;;;;;;;10.43;6.25;;;5.30;99.90;;;;;;5015217;28;20503;-73
2022/01/24 00:58:08;;;;;;;10.45;6.05;;;5.30;99.90;;;;;;5025215;28;20153;-73
2022/01/24 01:00:35;;;;;;;8.52;5.40;;;5.30;99.90;;;;;;5029626;28;20116;-73
2022/01/24 01:03:01;;;;;;;12.40;6.00;;;5.30;99.90;;;;;;5028624;28;20479;-73
2022/01/24 01:07:57;;;;;;;9.73;5.57;;;5.20;99.90;;;;;;5029274;28;20098;-73
2022/01/24 01:18:36;;;;;;;9.45;5.25;;;5.20;99.90;;;;;;5028187;28;20088;-73
2022/01/24 01:21:10;;;;;;;8.43;5.32;;;5.20;99.90;;;;;;5025714;28;20084;-73
2022/01/24 01:23:40;;;;;;;9.88;4.90;;;5.20;99.90;;;;;;5011122;28;20530;-73
2022/01/24 01:26:11;;;;;;;11.77;5.88;;;5.20;99.90;;;;;;5028428;28;20513;-73
2022/01/24 01:28:40;;;;;;;9.23;5.35;;;5.10;99.90;;;;;;5028467;28;20052;-73
2022/01/24 01:31:14;;;;;;;9.05;5.55;;;5.10;99.90;;;;;;5011981;28;20514;-73
2022/01/24 01:53:27;;;;;;;9.35;5.13;;;5.10;99.90;;;;;;5027351;28;20565;-73
2022/01/24 01:55:51;;;;;;;7.93;4.95;;;5.00;99.90;;;;;;5027553;28;20053;-73
2022/01/24 01:58:19;;;;;;;8.65;4.72;;;5.00;99.90;;;;;;5026308;28;20159;-73
2022/01/24 02:00:48;;;;;;;9.07;5.13;;;5.00;99.90;;;;;;5027208;28;20037;-73
2022/01/24 02:03:14;;;;;;;9.05;4.65;;;5.00;99.90;;;;;;5026888;28;20048;-74
2022/01/24 02:05:41;;;;;;;9.55;4.95;;;5.00;99.90;;;;;;5027886;28;20045;-73
2022/01/24 02:08:07;;;;;;;9.32;4.80;;;5.00;99.90;;;;;;5026082;28;20049;-73
2022/01/24 02:10:36;;;;;;;9.77;4.68;;;5.00;99.90;;;;;;5009996;28;20045;-73
2022/01/24 02:13:03;;;;;;;10.02;5.40;;;5.00;99.90;;;;;;5026822;28;20447;-72
2022/01/24 02:26:00;;;;;;;9.95;5.78;;;4.90;99.90;;;;;;5043934;28;20038;-73
2022/01/24 02:28:31;;;;;;;9.32;5.10;;;4.90;99.90;;;;;;5011712;28;20049;-73
2022/01/24 02:33:22;;;;;;;9.48;4.82;;;4.90;99.90;;;;;;5036394;28;20483;-73
2022/01/24 02:35:48;;;;;;;8.63;4.75;;;4.90;99.90;;;;;;5026004;28;20045;-73
2022/01/24 02:49:14;;;;;;;9.68;5.07;;;4.90;99.90;;;;;;5024875;28;20046;-73
2022/01/24 02:51:46;;;;;;;9.52;5.22;;;4.80;99.90;;;;;;5025468;28;20042;-73
2022/01/24 02:54:25;;;;;;;8.82;5.00;;;4.90;99.90;;;;;;5024916;28;20044;-73
2022/01/24 02:56:51;;;;;;;10.30;5.25;;;4.90;99.90;;;;;;5023830;28;20049;-73
2022/01/24 02:59:17;;;;;;;9.95;5.30;;;4.80;99.90;;;;;;5024836;28;20418;-72
2022/01/24 03:01:46;;;;;;;8.75;5.43;;;4.80;99.90;;;;;;5026912;28;20494;-74
2022/01/24 03:04:12;;;;;;;8.68;5.05;;;4.80;99.90;;;;;;5009741;28;20071;-74
2022/01/24 03:06:37;;;;;;;10.02;5.32;;;4.80;99.90;;;;;;5025730;28;20510;-73
2022/01/24 03:09:04;;;;;;;9.05;5.35;;;4.90;99.90;;;;;;5025939;28;20060;-73
2022/01/24 03:11:51;;;;;;;9.27;5.38;;;4.80;99.90;;;;;;5026485;28;20061;-73
2022/01/24 03:14:16;;;;;;;8.45;5.22;;;4.90;99.90;;;;;;5022773;28;20062;-73
2022/01/24 03:16:42;;;;;;;8.98;5.03;;;4.90;99.90;;;;;;5026279;28;20072;-73
2022/01/24 03:19:07;;;;;;;9.13;4.88;;;4.90;99.90;;;;;;5026348;28;20518;-73
2022/01/24 03:21:33;;;;;;;9.82;5.57;;;4.90;99.90;;;;;;5004145;28;20052;-73
2022/01/24 03:23:59;;;;;;;10.40;5.70;;;4.90;99.90;;;;;;5026472;28;20045;-73
2022/01/24 03:26:25;;;;;;;10.00;4.95;;;4.90;99.90;;;;;;5008077;28;20471;-73
2022/01/24 03:28:51;;;;;;;10.20;5.78;;;4.90;99.90;;;;;;5025779;28;20056;-73
2022/01/24 03:31:16;;;;;;;9.88;5.93;;;4.90;99.90;;;;;;5025797;28;20136;-73
2022/01/24 03:33:42;;;;;;;9.63;5.50;;;4.80;99.90;;;;;;5010063;28;20076;-72
2022/01/24 03:36:08;;;;;;;10.63;6.05;;;4.80;99.90;;;;;;5025242;28;20044;-73
2022/01/24 03:38:33;;;;;;;10.20;5.90;;;4.80;99.90;;;;;;5023906;28;20060;-72
2022/01/24 03:40:59;;;;;;;11.02;6.22;;;4.80;99.90;;;;;;5026034;28;20037;-73
2022/01/24 03:43:25;;;;;;;10.85;6.55;;;4.80;99.90;;;;;;5025363;28;20033;-73
2022/01/24 03:46:12;;;;;;;12.65;6.30;;;4.80;99.90;;;;;;5025008;28;20045;-73
2022/01/24 03:48:44;;;;;;;13.98;6.78;;;4.80;99.90;;;;;;5038814;28;20080;-74
2022/01/24 03:51:11;;;;;;;13.63;6.88;;;4.80;99.90;;;;;;5025563;28;20045;-73
2022/01/24 03:53:38;;;;;;;10.88;6.07;;;4.80;99.90;;;;;;5025575;28;20041;-73
2022/01/24 03:56:05;;;;;;;12.40;7.32;;;4.80;99.90;;;;;;5022071;28;20041;-73
2022/01/24 03:58:31;;;;;;;12.75;7.07;;;4.80;99.90;;;;;;5009079;28;20508;-73
2022/01/24 04:00:57;;;;;;;12.55;7.32;;;4.80;99.90;;;;;;5007673;28;20034;-74
2022/01/24 04:03:24;;;;;;;11.07;6.97;;;4.80;99.90;;;;;;5025276;28;20037;-73
2022/01/24 04:05:50;;;;;;;11.65;7.03;;;4.80;99.90;;;;;;5010520;28;20124;-74
2022/01/24 04:08:15;;;;;;;13.60;7.80;;;4.80;99.90;;;;;;5023529;28;20136;-74
2022/01/24 04:10:44;;;;;;;13.98;7.28;;;4.80;99.90;;;;;;5008639;28;20057;-73
2022/01/24 04:18:35;;;;;;;13.13;7.65;;;4.80;99.90;;;;;;5022576;28;20491;-73
2022/01/24 04:23:48;;;;;;;13.95;8.32;;;4.80;99.90;;;;;;5027672;28;20379;-73
2022/01/24 04:26:14;;;;;;;14.20;8.32;;;4.80;99.90;;;;;;5025384;28;20049;-73
2022/01/24 04:28:40;;;;;;;12.65;7.85;;;4.80;99.90;;;;;;5007361;28;20045;-73
2022/01/24 04:31:06;;;;;;;16.10;8.85;;;4.80;99.90;;;;;;5025477;28;20069;-73
2022/01/24 04:33:31;;;;;;;14.38;8.02;;;4.80;99.90;;;;;;5024149;28;20056;-73
2022/01/24 04:35:57;;;;;;;16.45;9.05;;;4.80;99.90;;;;;;5024499;28;20050;-73
2022/01/24 04:38:23;;;;;;;15.90;8.63;;;4.80;99.90;;;;;;5029061;28;20042;-72
2022/01/24 04:40:50;;;;;;;15.85;8.48;;;4.70;99.90;;;;;;5013308;28;20040;-73
2022/01/24 04:43:52;;;;;;;15.70;8.88;;;4.70;99.90;;;;;;5043941;28;20052;-73
2022/01/24 04:46:14;;;;;;;16.13;9.52;;;4.70;99.90;;;;;;5028378;28;20049;-73
2022/01/24 04:56:33;;;;;;;17.52;9.90;;;5.00;99.90;;;;;;5027960;28;20450;-73
2022/01/24 04:58:59;;;;;;;19.13;10.00;;;4.70;99.90;;;;;;5029752;28;20045;-73
2022/01/24 05:01:25;;;;;;;17.60;10.02;;;4.70;99.90;;;;;;5028717;28;20046;-73
2022/01/24 05:03:51;;;;;;;17.98;10.05;;;4.50;99.90;;;;;;5012132;28;20498;-73
2022/01/24 05:06:17;;;;;;;18.77;9.77;;;4.70;99.90;;;;;;5028082;28;20200;-73
2022/01/24 05:08:42;;;;;;;18.77;9.57;;;4.70;99.90;;;;;;5027234;28;20060;-73
2022/01/24 05:11:12;;;;;;;19.27;10.88;;;4.70;99.90;;;;;;5029064;28;20525;-73
2022/01/24 05:23:26;;;;;;;20.60;11.45;;;4.70;99.90;;;;;;5027397;28;20290;-73
2022/01/24 05:24:39;;;;;;;16.73;10.45;;;4.70;99.90;;;;;;5028114;28;20041;-71
2022/01/24 05:27:06;;;;;;;18.10;10.30;;;4.70;99.90;;;;;;5012412;28;20065;-73
2022/01/24 05:29:32;;;;;;;17.23;10.27;;;4.70;99.90;;;;;;5011772;28;20083;-73
2022/01/24 05:31:57;;;;;;;24.38;11.10;;;4.70;99.90;;;;;;5028633;28;20034;-73
2022/01/24 05:34:24;;;;;;;19.63;10.88;;;4.70;99.90;;;;;;5044772;28;20049;-73
2022/01/24 05:36:50;;;;;;;18.15;10.40;;;4.70;99.90;;;;;;5027406;28;20410;-73
2022/01/24 05:39:15;;;;;;;19.50;10.90;;;4.70;99.90;;;;;;5026970;28;20046;-73
2022/01/24 05:41:41;;;;;;;17.65;10.73;;;4.70;99.90;;;;;;5027252;28;20510;-73
2022/01/24 05:44:07;;;;;;;17.05;10.88;;;4.70;99.90;;;;;;5007271;28;20056;-73
2022/01/24 05:46:33;;;;;;;18.60;11.02;;;4.70;99.90;;;;;;5024704;28;20104;-73
2022/01/24 05:49:00;;;;;;;16.65;10.75;;;4.70;99.90;;;;;;5023182;28;20049;-73
2022/01/24 05:51:26;;;;;;;20.77;11.75;;;4.60;99.90;;;;;;5026571;28;20693;-73
2022/01/24 05:53:51;;;;;;;21.73;12.25;;;4.60;99.90;;;;;;5023553;28;20120;-73
2022/01/24 05:56:17;;;;;;;19.63;10.73;;;4.60;99.90;;;;;;5009697;28;20141;-73
2022/01/24 05:58:43;;;;;;;18.33;11.43;;;4.60;99.90;;;;;;5009007;28;20692;-73
2022/01/24 06:01:09;;;;;;;20.10;11.10;;;4.70;99.90;;;;;;5024906;28;20044;-73
2022/01/24 06:03:35;;;;;;;20.15;11.05;;;4.60;99.90;;;;;;5025641;28;20045;-73
2022/01/24 06:06:00;;;;;;;18.23;10.98;;;4.60;99.90;;;;;;5025831;28;20040;-73
2022/01/24 06:08:29;;;;;;;19.60;10.88;;;4.60;99.90;;;;;;5024660;28;20037;-73
2022/01/24 06:10:58;;;;;;;18.63;10.93;;;4.60;99.90;;;;;;5014295;28;20418;-73
2022/01/24 06:13:27;;;;;;;18.73;11.00;;;4.60;99.90;;;;;;5038703;28;20045;-73
2022/01/24 06:15:53;;;;;;;18.83;11.48;;;4.60;99.90;;;;;;5023146;28;20517;-73
2022/01/24 06:18:20;;;;;;;19.08;11.30;;;4.60;99.90;;;;;;5036081;28;20636;-73
2022/01/24 06:20:46;;;;;;;18.40;10.73;;;4.60;99.90;;;;;;5038896;28;20103;-73
2022/01/24 06:23:17;;;;;;;18.90;9.95;;;4.60;99.90;;;;;;5035818;28;20037;-73
2022/01/24 06:25:43;;;;;;;18.52;10.63;;;4.60;99.90;;;;;;5034363;28;20037;-74
2022/01/24 06:28:10;;;;;;;16.33;10.57;;;4.60;99.90;;;;;;5018299;28;20065;-73
2022/01/24 06:30:35;;;;;;;19.30;10.73;;;4.60;99.90;;;;;;5021364;28;20059;-73
2022/01/24 06:33:01;;;;;;;20.92;11.02;;;4.60;99.90;;;;;;5037699;28;20045;-73
2022/01/24 06:35:27;;;;;;;17.65;10.82;;;4.60;99.90;;;;;;5012246;28;20881;-73
2022/01/24 06:37:52;;;;;;;17.58;10.07;;;4.60;99.90;;;;;;5029889;28;20045;-73
2022/01/24 06:40:18;;;;;;;19.42;11.52;;;4.60;99.90;;;;;;5018821;28;20049;-73
2022/01/24 06:42:44;;;;;;;18.92;11.10;;;4.60;99.90;;;;;;4998221;28;20037;-73
2022/01/24 06:45:10;;;;;;;18.90;11.10;;;4.60;99.90;;;;;;5003553;28;20560;-73
2022/01/24 06:47:36;;;;;;;19.45;11.05;;;4.60;99.90;;;;;;5002672;28;20102;-74
2022/01/24 06:50:04;;;;;;;18.92;10.88;;;4.60;99.90;;;;;;5004716;28;20111;-73
2022/01/24 06:52:29;;;;;;;20.20;11.07;;;4.60;99.90;;;;;;5002640;28;20106;-73
2022/01/24 06:54:55;;;;;;;18.20;10.35;;;4.60;99.90;;;;;;5003517;28;20045;-74
2022/01/24 06:57:21;;;;;;;19.42;11.05;;;4.60;99.90;;;;;;5014263;28;20048;-73
2022/01/24 06:59:47;;;;;;;16.05;9.93;;;4.60;99.90;;;;;;5031811;28;20072;-74
2022/01/24 07:02:14;;;;;;;21.73;10.88;;;4.60;99.90;;;;;;5017341;28;20073;-73
2022/01/24 07:04:42;;;;;;;19.00;11.68;;;4.60;99.90;;;;;;5018084;28;20041;-73
2022/01/24 07:07:08;;;;;;;17.13;10.77;;;4.60;99.90;;;;;;5006438;28;20037;-73
2022/01/24 07:09:35;;;;;;;18.17;11.23;;;4.60;99.90;;;;;;5032419;28;20373;-73
2022/01/24 07:12:01;;;;;;;16.88;10.27;;;4.60;99.90;;;;;;5020307;28;20381;-74
2022/01/24 07:14:27;;;;;;;18.92;10.85;;;4.50;99.90;;;;;;5001136;28;20051;-73
2022/01/24 07:19:32;;;;;;;18.67;11.07;;;4.50;99.90;;;;;;5021997;28;20049;-73
2022/01/24 07:22:00;;;;;;;19.85;11.45;;;4.50;99.90;;;;;;5022574;28;20042;-73
2022/01/24 07:24:26;;;;;;;17.95;10.15;;;4.60;99.90;;;;;;5004898;28;20398;-73
2022/01/24 07:26:52;;;;;;;20.98;10.80;;;4.60;99.90;;;;;;5023263;28;20132;-73
2022/01/24 07:29:18;;;;;;;18.27;10.88;;;4.70;99.90;;;;;;5040227;28;20685;-74
2022/01/24 07:31:46;;;;;;;19.42;11.05;;;4.60;99.90;;;;;;5022405;28;20414;-73
2022/01/24 07:34:12;;;;;;;17.02;10.55;;;4.60;99.90;;;;;;5023356;28;20547;-74
2022/01/24 07:36:38;;;;;;;17.13;10.32;;;4.60;99.90;;;;;;5023301;28;20130;-73
2022/01/24 07:39:04;;;;;;;18.23;10.80;;;4.60;99.90;;;;;;5022876;28;20099;-73
2022/01/24 07:41:31;;;;;;;17.33;10.55;;;4.60;99.90;;;;;;5025065;28;20049;-74
2022/01/24 07:43:57;;;;;;;18.02;10.45;;;4.60;99.90;;;;;;5022757;28;20069;-73
2022/01/24 07:46:23;;;;;;;17.73;10.35;;;4.60;99.90;;;;;;5039341;28;20050;-74
2022/01/24 07:48:49;;;;;;;18.02;11.32;;;4.60;99.90;;;;;;5023453;28;20643;-73
2022/01/24 07:51:15;;;;;;;18.30;10.68;;;4.60;99.90;;;;;;5036585;28;20114;-74
2022/01/24 07:53:42;;;;;;;19.08;10.48;;;4.60;99.90;;;;;;5034880;28;20089;-74
2022/01/24 07:56:09;;;;;;;17.63;10.45;;;4.60;99.90;;;;;;5037517;28;20045;-73
2022/01/24 07:58:34;;;;;;;18.20;10.95;;;4.60;99.90;;;;;;5018806;28;20111;-74
2022/01/24 08:01:00;;;;;;;18.20;11.00;;;4.60;99.90;;;;;;5018999;28;20416;-73
2022/01/24 08:03:26;;;;;;;17.02;10.07;;;4.60;99.90;;;;;;5018265;28;20037;-74
2022/01/24 08:05:53;;;;;;;19.55;10.57;;;4.60;99.90;;;;;;5032626;28;20072;-74
2022/01/24 08:08:19;;;;;;;19.50;11.25;;;4.60;99.90;;;;;;5035381;28;20536;-73
2022/01/24 08:10:44;;;;;;;18.45;11.02;;;4.60;99.90;;;;;;5003085;28;20053;-74
2022/01/24 08:13:12;;;;;;;17.83;10.90;;;4.70;99.90;;;;;;5023931;28;20406;-73
2022/01/24 08:15:38;;;;;;;19.88;11.18;;;4.60;99.90;;;;;;5025838;28;20084;-73
2022/01/24 08:18:03;;;;;;;18.35;10.88;;;4.60;99.90;;;;;;5024191;28;20061;-73
2022/01/24 08:20:29;;;;;;;18.90;10.70;;;4.60;99.90;;;;;;5041253;28;20061;-73
2022/01/24 08:22:55;;;;;;;18.23;11.07;;;4.60;99.90;;;;;;5038713;28;20083;-72
2022/01/24 08:25:21;;;;;;;19.08;11.27;;;4.60;99.90;;;;;;5024892;28;20093;-73
2022/01/24 08:27:47;;;;;;;20.27;11.65;;;4.60;99.90;;;;;;5024135;28;20054;-74
2022/01/24 08:30:17;;;;;;;20.80;12.07;;;4.60;99.90;;;;;;5042736;28;20049;-73
2022/01/24 08:32:43;;;;;;;19.98;11.48;;;4.60;99.90;;;;;;5040701;28;20084;-74
2022/01/24 08:35:09;;;;;;;20.40;11.70;;;4.70;99.90;;;;;;5020707;28;20041;-74
2022/01/24 08:37:36;;;;;;;18.13;11.50;;;4.60;99.90;;;;;;5040778;28;20049;-73
2022/01/24 08:40:04;;;;;;;20.67;12.52;;;4.70;99.90;;;;;;5007651;28;20145;-73
2022/01/24 08:42:37;;;;;;;22.80;13.45;;;4.70;99.90;;;;;;5040799;28;20120;-73
2022/01/24 08:47:31;;;;;;;21.88;12.48;;;4.70;99.90;;;;;;5024494;28;20602;-73
2022/01/24 08:49:58;;;;;;;21.70;13.13;;;4.70;99.90;;;;;;5040521;28;20041;-74
2022/01/24 08:52:25;;;;;;;25.98;14.45;;;4.70;99.90;;;;;;5040746;28;20041;-74
2022/01/24 08:54:52;;;;;;;26.08;14.13;;;4.70;99.90;;;;;;5039419;28;20037;-73
2022/01/24 08:57:25;;;;;;;22.48;13.00;;;4.70;99.90;;;;;;5019892;28;20410;-74
2022/01/24 08:59:55;;;;;;;22.83;13.07;;;4.70;99.90;;;;;;5027774;28;20037;-73
2022/01/24 09:02:22;;;;;;;22.90;14.15;;;4.70;99.90;;;;;;5018673;28;20144;-73
2022/01/24 09:04:48;;;;;;;26.27;15.13;;;4.80;99.90;;;;;;5020968;28;20592;-73
2022/01/24 09:07:16;;;;;;;24.70;14.65;;;4.80;99.90;;;;;;5023064;28;20461;-73
2022/01/24 09:09:45;;;;;;;23.90;14.07;;;4.80;99.90;;;;;;5023502;28;20030;-74
2022/01/24 09:12:12;;;;;;;24.63;14.98;;;4.80;99.90;;;;;;5025169;28;20133;-73
2022/01/24 09:14:47;;;;;;;26.45;15.25;;;4.80;99.90;;;;;;5040556;28;20744;-73
2022/01/24 09:17:13;;;;;;;26.02;15.70;;;5.00;99.90;;;;;;5026155;28;20405;-73
2022/01/24 09:19:39;;;;;;;25.25;14.32;;;4.90;99.90;;;;;;5009267;28;20144;-73
2022/01/24 09:22:05;;;;;;;26.00;15.15;;;4.80;99.90;;;;;;5024653;28;20125;-72
2022/01/24 09:24:31;;;;;;;29.90;15.80;;;4.90;99.90;;;;;;5025979;28;20049;-73
2022/01/24 09:26:57;;;;;;;25.63;16.15;;;4.90;99.90;;;;;;5008865;28;20041;-73
2022/01/24 09:29:22;;;;;;;24.27;14.93;;;4.90;99.90;;;;;;5019695;28;20120;-73
2022/01/24 09:31:48;;;;;;;28.02;15.68;;;5.20;99.90;;;;;;5007727;28;20700;-73
2022/01/24 09:34:14;;;;;;;25.58;15.38;;;4.90;99.90;;;;;;5025509;28;20216;-72
2022/01/24 09:36:40;;;;;;;26.42;16.25;;;4.90;99.90;;;;;;5024308;28;20409;-73
2022/01/24 09:39:05;;;;;;;26.27;15.23;;;5.00;99.90;;;;;;5008932;28;20522;-73
2022/01/24 09:41:31;;;;;;;29.17;16.70;;;5.00;99.90;;;;;;5026705;28;20045;-71
2022/01/24 09:43:57;;;;;;;28.15;16.40;;;5.00;99.90;;;;;;5024628;28;20123;-73
2022/01/24 09:46:23;;;;;;;27.85;16.30;;;5.00;99.90;;;;;;5027775;28;20056;-73
2022/01/24 09:48:49;;;;;;;28.55;16.08;;;5.00;99.90;;;;;;5024828;28;20040;-73
2022/01/24 09:51:14;;;;;;;26.80;15.98;;;5.00;99.90;;;;;;5021851;28;20045;-73
2022/01/24 09:53:40;;;;;;;26.48;16.02;;;5.00;99.90;;;;;;5007642;28;20049;-73
2022/01/24 09:56:07;;;;;;;26.70;16.35;;;5.10;99.90;;;;;;5024538;28;20041;-73
2022/01/24 09:58:34;;;;;;;27.95;17.23;;;5.10;99.90;;;;;;5040874;28;20050;-73
2022/01/24 10:01:00;;;;;;;29.27;16.38;;;5.10;99.90;;;;;;5008601;28;20041;-72
2022/01/24 10:03:26;;;;;;;37.25;20.63;;;5.10;99.90;;;;;;5008534;28;20161;-73
2022/01/24 10:05:54;;;;;;;39.08;20.60;;;5.10;99.90;;;;;;5023941;28;20486;-72
2022/01/24 10:08:22;;;;;;;34.45;19.48;;;5.10;99.90;;;;;;5007007;28;20168;-73
2022/01/24 10:10:52;;;;;;;38.78;21.67;;;5.30;99.90;;;;;;5039129;28;20913;-72
2022/01/24 10:16:30;;;;;;;35.38;20.40;;;5.20;99.90;;;;;;5040712;28;20059;-73
2022/01/24 10:19:14;;;;;;;36.65;21.48;;;5.20;99.90;;;;;;5039470;28;20043;-73
2022/01/24 10:21:40;;;;;;;39.08;20.63;;;5.20;99.90;;;;;;5023113;28;20045;-73
2022/01/24 10:24:06;;;;;;;37.33;21.38;;;5.20;99.90;;;;;;5039918;28;20064;-72
2022/01/24 10:26:32;;;;;;;36.40;21.27;;;5.20;99.90;;;;;;5038142;28;20548;-74
2022/01/24 10:28:58;;;;;;;38.65;21.80;;;5.20;99.90;;;;;;5022277;28;20049;-73
2022/01/24 10:31:28;;;;;;;41.83;22.42;;;5.20;99.90;;;;;;5006742;28;20048;-73
2022/01/24 10:34:06;;;;;;;46.10;23.83;;;5.20;99.90;;;;;;5021599;28;20069;-72
2022/01/24 10:36:41;;;;;;;40.45;23.40;;;5.20;99.90;;;;;;5039523;28;20120;-73
2022/01/24 10:39:15;;;;;;;40.42;23.95;;;5.30;99.90;;;;;;5037789;28;20057;-73
2022/01/24 10:42:10;;;;;;;42.13;23.08;;;5.30;99.90;;;;;;5037134;28;20176;-73
2022/01/24 10:44:36;;;;;;;37.15;21.45;;;5.30;99.90;;;;;;5007025;28;20438;-73
2022/01/24 10:47:14;;;;;;;39.72;21.77;;;5.30;99.90;;;;;;5023224;28;20079;-73
2022/01/24 10:49:41;;;;;;;41.35;21.02;;;5.30;99.90;;;;;;5022089;28;20107;-73
2022/01/24 10:52:13;;;;;;;36.67;20.83;;;5.30;99.90;;;;;;5006125;28;20048;-73
2022/01/24 10:54:39;;;;;;;38.47;21.38;;;5.50;99.90;;;;;;5020799;28;20037;-73
2022/01/24 10:57:04;;;;;;;36.65;20.25;;;5.30;99.90;;;;;;5007422;28;20044;-73
2022/01/24 10:59:30;;;;;;;38.50;21.20;;;5.30;99.90;;;;;;5042290;28;20048;-73
2022/01/24 11:01:59;;;;;;;35.42;21.33;;;5.40;99.90;;;;;;5012730;28;20049;-73
2022/01/24 11:04:26;;;;;;;38.60;22.17;;;5.40;99.90;;;;;;5014014;28;20053;-73
2022/01/24 11:07:01;;;;;;;40.38;22.55;;;5.30;99.90;;;;;;5016421;28;20051;-72
2022/01/24 11:09:33;;;;;;;39.85;20.92;;;5.40;99.90;;;;;;5002918;28;20132;-73
2022/01/24 11:12:08;;;;;;;39.53;21.88;;;5.40;99.90;;;;;;5034258;28;20042;-72
2022/01/24 11:14:35;;;;;;;40.42;21.73;;;5.40;99.90;;;;;;5017517;28;20128;-73
2022/01/24 11:17:01;;;;;;;38.35;20.67;;;5.40;99.90;;;;;;4999531;28;20060;-74
2022/01/24 11:19:50;;;;;;;40.25;21.20;;;5.60;99.90;;;;;;5018393;28;20124;-74
2022/01/24 11:22:20;;;;;;;35.92;19.83;;;5.40;99.90;;;;;;5017729;28;20071;-73
2022/01/24 11:25:02;;;;;;;37.55;20.60;;;5.40;99.90;;;;;;5011066;28;20045;-73
2022/01/24 11:27:30;;;;;;;36.72;20.67;;;5.40;99.90;;;;;;4988225;28;20072;-73
2022/01/24 11:29:59;;;;;;;36.88;21.02;;;5.40;99.90;;;;;;5028459;28;20045;-73
2022/01/24 11:32:33;;;;;;;39.08;21.67;;;5.40;99.90;;;;;;4998467;28;20049;-73
2022/01/24 11:34:59;;;;;;;39.40;21.20;;;5.40;99.90;;;;;;5032438;28;20554;-73
2022/01/24 11:37:46;;;;;;;36.83;20.55;;;5.40;99.90;;;;;;5033365;28;20057;-73
2022/01/24 11:40:13;;;;;;;33.78;19.98;;;5.40;99.90;;;;;;5031794;28;20048;-73
2022/01/24 11:42:40;;;;;;;36.65;19.90;;;5.40;99.90;;;;;;5011175;28;20049;-73
2022/01/24 11:45:14;;;;;;;35.00;20.00;;;5.40;99.90;;;;;;5014572;28;20072;-72
2022/01/24 11:47:41;;;;;;;33.92;19.60;;;5.40;99.90;;;;;;5031809;28;20057;-73
2022/01/24 11:50:32;;;;;;;36.63;20.02;;;5.40;99.90;;;;;;5017645;28;20054;-73
2022/01/24 11:52:59;;;;;;;36.22;20.73;;;5.40;99.90;;;;;;4998331;28;20132;-73
2022/01/24 11:55:36;;;;;;;34.83;19.50;;;5.40;99.90;;;;;;5008631;28;20525;-73
2022/01/24 11:58:06;;;;;;;37.10;20.95;;;5.50;99.90;;;;;;5009122;28;20045;-73
2022/01/24 12:00:42;;;;;;;35.78;20.58;;;5.50;99.90;;;;;;5026172;28;20049;-73
2022/01/24 12:03:23;;;;;;;31.25;19.08;;;5.50;99.90;;;;;;5023016;28;20849;-73
2022/01/24 12:05:53;;;;;;;34.38;19.92;;;5.50;99.90;;;;;;5021745;28;20548;-73
2022/01/24 12:08:36;;;;;;;33.35;19.15;;;5.50;99.90;;;;;;5008286;28;20045;-72
2022/01/24 12:11:14;;;;;;;33.72;19.83;;;5.50;99.90;;;;;;5026965;28;20407;-73
2022/01/24 12:13:43;;;;;;;35.80;19.70;;;5.50;99.90;;;;;;5029143;28;20406;-73
2022/01/24 12:16:10;;;;;;;36.50;20.77;;;5.50;99.90;;;;;;5008349;28;20049;-73
2022/01/24 12:18:36;;;;;;;41.20;22.05;;;5.50;99.90;;;;;;5020736;28;20059;-73
2022/01/24 12:21:03;;;;;;;42.35;21.75;;;5.40;99.90;;;;;;5013389;28;21134;-72
2022/01/24 12:23:47;;;;;;;42.90;24.20;;;5.40;99.90;;;;;;4989729;28;20094;-73
2022/01/24 12:26:12;;;;;;;43.50;23.73;;;5.50;99.90;;;;;;5011071;28;20710;-73
2022/01/24 12:28:41;;;;;;;42.20;23.33;;;5.50;99.90;;;;;;5025442;28;20053;-73
2022/01/24 12:31:22;;;;;;;45.03;25.35;;;5.50;99.90;;;;;;5010622;28;20045;-73
2022/01/24 12:33:58;;;;;;;45.95;24.08;;;6.20;99.90;;;;;;5021551;28;20357;-73
2022/01/24 12:36:46;;;;;;;47.50;24.40;;;5.50;99.90;;;;;;4988374;28;20085;-73
2022/01/24 12:39:33;;;;;;;38.33;21.45;;;5.50;99.90;;;;;;5020191;28;20041;-73
2022/01/24 12:42:04;;;;;;;46.45;23.15;;;5.50;99.90;;;;;;5010555;28;20524;-73
2022/01/24 12:47:18;;;;;;;40.75;22.42;;;5.50;99.90;;;;;;5022492;28;20449;-73
2022/01/24 12:49:46;;;;;;;37.33;20.67;;;5.50;99.90;;;;;;4991840;28;20050;-73
2022/01/24 12:52:15;;;;;;;39.38;22.30;;;5.50;99.90;;;;;;5025479;28;20072;-73
2022/01/24 12:54:47;;;;;;;36.05;21.02;;;5.50;99.90;;;;;;5007040;28;20053;-73
2022/01/24 12:57:16;;;;;;;37.67;20.67;;;5.50;99.90;;;;;;5022279;28;20053;-73
2022/01/24 12:59:53;;;;;;;37.22;21.70;;;5.50;99.90;;;;;;5007370;28;20085;-73
2022/01/24 13:02:26;;;;;;;40.08;22.13;;;5.50;99.90;;;;;;4997312;28;20041;-73
2022/01/24 13:04:58;;;;;;;38.17;21.52;;;5.50;99.90;;;;;;5008283;28;20080;-73
2022/01/24 13:07:24;;;;;;;42.22;23.48;;;5.50;99.90;;;;;;5019085;28;20041;-73
2022/01/24 13:09:50;;;;;;;41.38;22.90;;;5.50;99.90;;;;;;5007697;28;20604;-73
2022/01/24 13:12:16;;;;;;;43.22;22.92;;;5.50;99.90;;;;;;4996071;28;20042;-73
2022/01/24 13:25:26;;;;;;;41.22;23.60;;;5.40;99.90;;;;;;5021170;28;20080;-73
2022/01/24 13:28:03;;;;;;;40.97;23.02;;;5.40;99.90;;;;;;5035389;28;20053;-72
2022/01/24 13:30:42;;;;;;;38.13;22.23;;;5.40;99.90;;;;;;5036076;28;20064;-72
2022/01/24 13:33:11;;;;;;;37.65;21.92;;;5.50;99.90;;;;;;5037542;28;20045;-72
2022/01/24 13:35:43;;;;;;;39.30;20.75;;;5.50;99.90;;;;;;5037475;28;20081;-73
2022/01/24 13:38:31;;;;;;;39.92;20.90;;;5.40;99.90;;;;;;5020303;28;20124;-73
2022/01/24 13:40:59;;;;;;;35.47;19.90;;;5.50;99.90;;;;;;5017987;28;20477;-73
2022/01/24 13:43:58;;;;;;;39.35;21.38;;;5.40;99.90;;;;;;5015304;28;20044;-72
2022/01/24 13:46:34;;;;;;;36.40;18.90;;;5.40;99.90;;;;;;4988884;28;20060;-73
2022/01/24 13:49:03;;;;;;;35.15;20.15;;;5.40;99.90;;;;;;5020755;28;20064;-72
2022/01/24 13:51:41;;;;;;;35.85;20.17;;;5.40;99.90;;;;;;5018641;28;20045;-72
2022/01/24 13:54:09;;;;;;;38.75;19.67;;;5.40;99.90;;;;;;5013882;28;20056;-73
2022/01/24 13:56:45;;;;;;;32.80;18.77;;;5.40;99.90;;;;;;5017277;28;20069;-73
2022/01/24 13:59:15;;;;;;;38.30;19.70;;;5.40;99.90;;;;;;5013475;28;20128;-73
2022/01/24 14:01:51;;;;;;;36.17;18.90;;;5.40;99.90;;;;;;5029319;28;20107;-73
2022/01/24 14:04:27;;;;;;;36.42;19.77;;;5.40;99.90;;;;;;5022363;28;20597;-73
2022/01/24 14:07:00;;;;;;;35.35;19.20;;;5.40;99.90;;;;;;5003224;28;20443;-73
2022/01/24 14:09:52;;;;;;;36.28;19.08;;;5.40;99.90;;;;;;5004805;28;20041;-73
2022/01/24 14:12:29;;;;;;;37.88;19.98;;;5.40;99.90;;;;;;5015599;28;20103;-73
2022/01/24 14:15:04;;;;;;;34.10;19.88;;;5.40;99.90;;;;;;5002827;28;20045;-73
2022/01/24 14:20:07;;;;;;;35.20;19.23;;;5.30;99.90;;;;;;5005160;28;20056;-72
2022/01/24 14:22:43;;;;;;;38.63;19.95;;;5.30;99.90;;;;;;5025310;28;20049;-72
2022/01/24 14:25:15;;;;;;;33.33;18.30;;;5.30;99.90;;;;;;5005420;28;20124;-72
2022/01/24 14:27:46;;;;;;;34.85;19.80;;;5.30;99.90;;;;;;5025097;28;20064;-72
2022/01/24 14:30:19;;;;;;;;;;;5.30;99.90;;;;;;5039659;28;20065;-72
2022/01/24 14:33:11;;;;;;;32.97;19.20;;;5.30;99.90;;;;;;5038809;28;19928;-72
2022/01/24 14:35:48;;;;;;;36.05;18.65;;;5.30;99.90;;;;;;5018177;28;20423;-73
2022/01/24 14:38:27;;;;;;;37.05;18.45;;;5.20;99.90;;;;;;5014660;28;20049;-72
2022/01/24 14:40:55;;;;;;;33.08;18.20;;;5.20;99.90;;;;;;5022687;28;20041;-72
2022/01/24 14:46:15;;;;;;;36.47;18.08;;;5.20;99.90;;;;;;5019376;28;20104;-73
2022/01/24 14:48:49;;;;;;;35.97;19.38;;;5.20;99.90;;;;;;5018940;28;20121;-72
2022/01/24 14:51:22;;;;;;;39.80;20.00;;;5.20;99.90;;;;;;5018400;28;20798;-72
2022/01/24 14:53:47;;;;;;;36.90;20.77;;;5.20;99.90;;;;;;4988612;28;20054;-73